Time;durP1;ratioP1;P1;durP2;ratioP2;P2;SDS_P1;SDS_P2;PMS_P1;PMS_P2;Temp;Humidity;BMP_temperature;BMP_pressure;BME280_temperature;BME280_humidity;BME280_pressure;Samples;Min_cycle;Max_cycle;Signal;HPM_P1;HPM_P2
2022/09/25 00:00:47;;;;;;;6.47;2.92;;;;;;;11.60;87.71;101565.13;5021082;28;20439;-77
2022/09/25 00:03:14;;;;;;;5.07;3.00;;;;;;;11.54;87.35;101561.00;5021642;28;20069;-77
2022/09/25 00:05:42;;;;;;;7.00;3.28;;;;;;;11.49;87.12;101566.91;5013890;28;20508;-77
2022/09/25 00:08:09;;;;;;;8.50;2.88;;;;;;;11.42;87.55;101571.53;5017652;28;20033;-77
2022/09/25 00:10:43;;;;;;;7.22;2.80;;;;;;;11.50;87.39;101579.72;5041110;28;20184;-77
2022/09/25 00:13:09;;;;;;;5.28;2.80;;;;;;;11.49;87.15;101575.31;5022594;28;20489;-77
2022/09/25 00:15:36;;;;;;;8.68;3.20;;;;;;;11.36;88.01;101568.19;5023041;28;20473;-77
2022/09/25 00:18:01;;;;;;;6.85;3.85;;;;;;;11.39;88.14;101578.69;5026507;28;20489;-77
2022/09/25 00:20:27;;;;;;;6.97;3.17;;;;;;;11.36;88.18;101579.41;5019744;28;20070;-76
2022/09/25 00:22:53;;;;;;;10.32;3.72;;;;;;;11.42;87.71;101582.75;5015379;28;20042;-76
2022/09/25 00:25:19;;;;;;;5.32;2.85;;;;;;;11.42;88.11;101588.34;5016134;28;20125;-76
2022/09/25 00:27:45;;;;;;;7.68;3.70;;;;;;;11.34;88.84;101581.75;5017474;28;20120;-75
2022/09/25 00:30:12;;;;;;;6.30;3.20;;;;;;;11.31;88.60;101586.13;5018951;28;20045;-75
2022/09/25 00:32:39;;;;;;;6.63;3.20;;;;;;;11.28;88.62;101588.81;5021302;28;20496;-77
2022/09/25 00:35:05;;;;;;;11.50;3.22;;;;;;;11.36;88.12;101582.22;5021946;28;20037;-77
2022/09/25 00:37:35;;;;;;;5.53;2.75;;;;;;;11.40;88.10;101591.50;5014323;28;20038;-76
2022/09/25 00:40:02;;;;;;;4.70;2.60;;;;;;;11.27;88.04;101588.03;5019973;28;20423;-76
2022/09/25 00:42:27;;;;;;;5.10;2.47;;;;;;;11.35;87.94;101597.41;5019183;28;20033;-76
2022/09/25 00:44:59;;;;;;;7.47;3.25;;;;;;;11.35;87.37;101584.19;5018069;28;20041;-75
2022/09/25 00:47:27;;;;;;;7.32;3.65;;;;;;;11.25;88.21;101583.97;5014828;28;20083;-76
2022/09/25 00:49:55;;;;;;;8.55;3.97;;;;;;;11.33;87.91;101594.16;5020870;28;20401;-77
2022/09/25 00:52:22;;;;;;;8.55;4.28;;;;;;;11.30;87.89;101589.28;5013912;28;20063;-76
2022/09/25 00:54:54;;;;;;;8.52;3.88;;;;;;;11.31;87.85;101600.13;5012006;28;20516;-76
2022/09/25 00:57:25;;;;;;;7.13;3.58;;;;;;;11.25;88.08;101592.38;5018377;28;20072;-76
2022/09/25 00:59:57;;;;;;;6.45;3.78;;;;;;;11.25;87.97;101586.78;5022174;28;20040;-77
2022/09/25 01:02:27;;;;;;;6.22;3.58;;;;;;;11.25;87.81;101589.56;5017694;28;20113;-76
2022/09/25 01:04:56;;;;;;;7.00;3.33;;;;;;;11.21;87.69;101594.28;5018810;28;20033;-76
2022/09/25 01:07:22;;;;;;;6.63;3.67;;;;;;;11.23;87.81;101592.72;5016807;28;20021;-76
2022/09/25 01:09:48;;;;;;;5.28;3.38;;;;;;;11.11;88.21;101585.28;5013965;28;20034;-76
2022/09/25 01:12:14;;;;;;;9.13;3.60;;;;;;;11.14;87.63;101595.72;5014832;28;20026;-76
2022/09/25 01:14:40;;;;;;;6.35;3.05;;;;;;;11.13;88.14;101596.09;5015437;28;20515;-77
2022/09/25 01:17:26;;;;;;;6.30;3.30;;;;;;;11.20;87.80;101590.66;5017543;28;20451;-76
2022/09/25 01:20:21;;;;;;;6.97;3.47;;;;;;;11.18;87.79;101585.44;5016458;28;20131;-77
2022/09/25 01:22:46;;;;;;;8.00;2.97;;;;;;;11.07;88.27;101592.78;5013067;28;20040;-76
2022/09/25 01:25:33;;;;;;;8.05;2.85;;;;;;;11.07;88.07;101589.97;5012837;28;20034;-77
2022/09/25 01:28:23;;;;;;;8.85;3.47;;;;;;;11.10;87.74;101588.44;5013151;28;20100;-76
2022/09/25 01:30:56;;;;;;;9.30;2.65;;;;;;;11.08;87.46;101582.38;5012595;28;20489;-77
2022/09/25 01:33:35;;;;;;;8.57;3.47;;;;;;;11.05;87.73;101585.91;5015552;28;20017;-76
2022/09/25 01:36:24;;;;;;;5.65;3.08;;;;;;;10.99;88.27;101576.97;5015317;28;20028;-77
2022/09/25 01:38:56;;;;;;;7.32;3.10;;;;;;;11.00;88.08;101578.59;5015195;28;20041;-76
2022/09/25 01:41:48;;;;;;;4.47;2.92;;;;;;;11.04;87.73;101573.88;5021923;28;20144;-76
2022/09/25 01:44:27;;;;;;;7.30;2.83;;;;;;;10.97;88.29;101570.91;5006490;28;20041;-77
2022/09/25 01:46:56;;;;;;;4.65;3.15;;;;;;;11.01;87.78;101576.63;5013474;28;20033;-75
2022/09/25 01:49:27;;;;;;;9.13;3.08;;;;;;;10.96;88.30;101574.88;5016035;28;20061;-75
2022/09/25 01:51:55;;;;;;;11.00;3.60;;;;;;;10.95;88.45;101576.06;5010177;28;20041;-77
2022/09/25 01:54:26;;;;;;;5.20;2.38;;;;;;;10.89;88.68;101569.13;5014714;28;20289;-77
2022/09/25 01:56:57;;;;;;;6.43;2.92;;;;;;;10.90;88.39;101568.75;5014564;28;20405;-75
2022/09/25 01:59:43;;;;;;;6.80;3.30;;;;;;;10.76;89.00;101574.00;5013970;28;20044;-76
2022/09/25 02:02:14;;;;;;;4.68;2.22;;;;;;;10.85;88.98;101576.63;5017465;28;20053;-76
2022/09/25 02:04:48;;;;;;;8.07;3.03;;;;;;;10.93;88.17;101567.22;5018879;28;20045;-75
2022/09/25 02:07:21;;;;;;;4.05;2.55;;;;;;;10.81;88.44;101564.53;5015519;28;20051;-76
2022/09/25 02:09:51;;;;;;;4.97;2.60;;;;;;;10.86;88.19;101564.25;5009641;28;20433;-77
2022/09/25 02:12:33;;;;;;;7.03;2.75;;;;;;;10.87;87.66;101569.47;5013775;28;20056;-76
2022/09/25 02:15:04;;;;;;;3.50;2.40;;;;;;;10.88;88.11;101573.09;5013533;28;20276;-76
2022/09/25 02:20:49;;;;;;;3.60;2.15;;;;;;;10.76;87.31;101560.81;5015703;28;20056;-76
2022/09/25 02:23:24;;;;;;;7.68;2.60;;;;;;;10.79;87.59;101562.06;5011412;28;20030;-76
2022/09/25 02:25:59;;;;;;;4.97;2.30;;;;;;;10.71;87.72;101560.28;5006035;28;20265;-76
2022/09/25 02:28:24;;;;;;;5.38;2.50;;;;;;;10.84;87.12;101566.59;5009827;28;20527;-76
2022/09/25 02:30:56;;;;;;;3.15;2.42;;;;;;;10.72;87.29;101559.09;5012010;28;20033;-76
2022/09/25 02:33:22;;;;;;;6.90;2.45;;;;;;;10.72;87.37;101565.50;5011241;28;20566;-76
2022/09/25 02:35:48;;;;;;;4.18;2.53;;;;;;;10.72;87.03;101559.91;5014674;28;20489;-76
2022/09/25 02:38:14;;;;;;;9.27;2.88;;;;;;;10.73;87.14;101553.16;5022081;28;20036;-76
2022/09/25 02:40:46;;;;;;;5.68;2.78;;;;;;;10.63;87.40;101564.91;5012133;28;20033;-76
2022/09/25 02:43:34;;;;;;;6.18;2.30;;;;;;;10.64;87.14;101569.31;5013356;28;20029;-75
2022/09/25 02:46:17;;;;;;;5.20;2.47;;;;;;;10.61;87.36;101567.25;5007850;28;20033;-76
2022/09/25 02:48:51;;;;;;;5.57;2.50;;;;;;;10.67;86.97;101565.81;5007449;28;20508;-77
2022/09/25 02:51:25;;;;;;;4.43;1.92;;;;;;;10.66;86.83;101568.94;5011349;28;20045;-76
2022/09/25 02:54:00;;;;;;;5.88;3.03;;;;;;;10.65;87.00;101564.53;5009992;28;20594;-75
2022/09/25 02:56:40;;;;;;;5.57;2.42;;;;;;;10.65;87.10;101556.16;5012208;28;20056;-76
2022/09/25 02:59:17;;;;;;;2.53;2.03;;;;;;;10.63;86.92;101572.50;5016471;28;20075;-76
2022/09/25 03:01:43;;;;;;;3.72;2.42;;;;;;;10.58;86.92;101571.59;5010288;28;20492;-75
2022/09/25 03:04:10;;;;;;;6.10;3.08;;;;;;;10.50;86.96;101566.16;5013471;28;20480;-75
2022/09/25 03:06:37;;;;;;;4.43;2.40;;;;;;;10.62;85.99;101568.84;5015997;28;20026;-75
2022/09/25 03:09:03;;;;;;;4.35;2.00;;;;;;;10.59;86.42;101564.00;5011914;28;20021;-75
2022/09/25 03:11:29;;;;;;;3.10;2.13;;;;;;;10.51;86.71;101562.19;5016610;28;20029;-75
2022/09/25 03:14:04;;;;;;;4.20;1.80;;;;;;;10.53;86.79;101555.03;5019205;28;20522;-74
2022/09/25 03:16:51;;;;;;;6.88;2.40;;;;;;;10.47;86.80;101564.06;5013774;28;20046;-76
2022/09/25 03:19:20;;;;;;;3.90;2.22;;;;;;;10.47;86.47;101566.88;5016349;28;20509;-76
2022/09/25 03:21:47;;;;;;;3.13;2.25;;;;;;;10.49;86.73;101567.31;5014940;28;20037;-76
2022/09/25 03:24:13;;;;;;;3.55;1.92;;;;;;;10.38;86.66;101564.25;5018183;28;20116;-76
2022/09/25 03:26:39;;;;;;;4.43;1.98;;;;;;;10.41;86.84;101569.13;5011509;28;20481;-77
2022/09/25 03:29:05;;;;;;;7.00;2.10;;;;;;;10.46;86.70;101563.28;5011852;28;20083;-75
2022/09/25 03:31:31;;;;;;;6.22;2.10;;;;;;;10.39;87.04;101563.06;5009493;28;20033;-76
2022/09/25 03:33:56;;;;;;;6.90;2.05;;;;;;;10.34;87.10;101564.16;5017239;28;20057;-76
2022/09/25 03:36:24;;;;;;;5.45;2.03;;;;;;;10.36;87.18;101567.41;5015216;28;20056;-76
2022/09/25 03:38:52;;;;;;;4.57;2.35;;;;;;;10.29;87.50;101572.00;5017896;28;20136;-76
2022/09/25 03:41:20;;;;;;;5.47;1.90;;;;;;;10.34;87.36;101574.53;5016148;28;20451;-76
2022/09/25 03:43:50;;;;;;;3.85;1.83;;;;;;;10.26;87.58;101570.69;5015265;28;20033;-76
2022/09/25 03:46:18;;;;;;;2.40;1.73;;;;;;;10.37;87.27;101573.81;5013789;28;20569;-76
2022/09/25 03:48:43;;;;;;;4.20;2.78;;;;;;;10.37;87.50;101566.25;5013236;28;20029;-75
2022/09/25 03:51:09;;;;;;;3.63;2.00;;;;;;;10.45;87.52;101558.84;5011507;28;20499;-76
2022/09/25 03:53:35;;;;;;;3.60;2.00;;;;;;;10.39;88.17;101551.88;5011126;28;20508;-76
2022/09/25 03:56:03;;;;;;;5.63;2.20;;;;;;;10.31;89.33;101552.88;5010064;28;20195;-75
2022/09/25 03:58:29;;;;;;;8.25;2.33;;;;;;;10.32;89.71;101549.72;5015160;28;20037;-76
2022/09/25 04:00:56;;;;;;;5.75;2.25;;;;;;;10.35;88.69;101553.75;5020157;28;20052;-77
2022/09/25 04:03:22;;;;;;;5.25;2.40;;;;;;;10.35;88.93;101542.56;5020422;28;20489;-76
2022/09/25 04:05:48;;;;;;;4.15;2.00;;;;;;;10.35;89.15;101548.16;5023416;28;20382;-76
2022/09/25 04:08:13;;;;;;;4.30;1.90;;;;;;;10.27;89.69;101549.97;5018444;28;20060;-76
2022/09/25 04:10:39;;;;;;;3.65;2.10;;;;;;;10.36;88.64;101556.22;5016726;28;20120;-76
2022/09/25 04:13:11;;;;;;;4.13;2.15;;;;;;;10.27;89.68;101546.34;5022198;28;20060;-77
2022/09/25 04:15:38;;;;;;;7.30;1.80;;;;;;;10.27;88.84;101549.97;5016684;28;20045;-76
2022/09/25 04:18:04;;;;;;;5.18;2.15;;;;;;;10.26;89.14;101547.50;5017888;28;20400;-76
2022/09/25 04:20:29;;;;;;;4.00;1.95;;;;;;;10.30;88.53;101531.66;5024632;28;20045;-75
2022/09/25 04:22:55;;;;;;;2.60;1.77;;;;;;;10.27;88.42;101535.97;5022846;28;20037;-76
2022/09/25 04:25:24;;;;;;;4.63;1.88;;;;;;;10.26;88.33;101539.13;5015445;28;20110;-76
2022/09/25 04:27:51;;;;;;;5.68;2.15;;;;;;;10.18;89.04;101538.94;5018993;28;20388;-76
2022/09/25 04:30:17;;;;;;;2.58;1.90;;;;;;;10.31;87.57;101541.69;5017993;28;20079;-75
2022/09/25 04:35:26;;;;;;;6.05;2.15;;;;;;;10.26;88.29;101544.72;5015919;28;20059;-75
2022/09/25 04:37:51;;;;;;;2.42;1.77;;;;;;;10.24;87.89;101542.25;5011571;28;20318;-76
2022/09/25 04:40:17;;;;;;;3.10;1.70;;;;;;;10.26;87.73;101545.53;5016782;28;20577;-76
2022/09/25 04:42:42;;;;;;;4.63;2.17;;;;;;;10.11;87.85;101544.31;5014794;28;20149;-75
2022/09/25 04:45:08;;;;;;;4.53;2.33;;;;;;;9.99;89.21;101541.59;5015369;28;20051;-75
2022/09/25 04:47:33;;;;;;;3.95;1.58;;;;;;;10.15;88.25;101538.84;5014995;28;20127;-75
2022/09/25 04:49:58;;;;;;;4.57;2.25;;;;;;;10.18;88.02;101540.91;5018952;28;20038;-76
2022/09/25 04:52:24;;;;;;;3.90;1.50;;;;;;;10.16;88.73;101551.63;5032376;28;20073;-77
2022/09/25 04:54:49;;;;;;;4.90;1.75;;;;;;;10.18;89.22;101543.69;5018129;28;20034;-76
2022/09/25 04:57:20;;;;;;;4.07;2.70;;;;;;;10.19;89.35;101550.94;5017276;28;20045;-77
2022/09/25 04:59:47;;;;;;;4.45;2.47;;;;;;;10.18;89.95;101554.88;5018330;28;20029;-75
2022/09/25 05:02:13;;;;;;;2.47;1.55;;;;;;;10.18;89.74;101549.28;5010642;28;20477;-76
2022/09/25 05:04:39;;;;;;;3.42;1.95;;;;;;;10.11;90.70;101546.31;5033363;28;20045;-77
2022/09/25 05:07:04;;;;;;;7.28;2.10;;;;;;;10.22;89.71;101550.19;5009278;28;20026;-77
2022/09/25 05:09:30;;;;;;;4.10;1.75;;;;;;;10.27;88.83;101544.34;5015468;28;20033;-76
2022/09/25 05:11:56;;;;;;;3.65;2.05;;;;;;;10.27;89.17;101543.56;5011445;28;20041;-76
2022/09/25 05:14:21;;;;;;;10.73;2.33;;;;;;;10.18;90.07;101535.31;5021848;28;20045;-75
2022/09/25 05:16:47;;;;;;;3.00;1.88;;;;;;;10.27;88.70;101530.38;5018654;28;20033;-76
2022/09/25 05:19:13;;;;;;;2.35;1.50;;;;;;;10.27;89.56;101516.38;5014328;28;20037;-76
2022/09/25 05:21:39;;;;;;;5.22;1.80;;;;;;;10.27;89.69;101518.38;5009116;28;20643;-76
2022/09/25 05:24:04;;;;;;;4.18;1.52;;;;;;;10.18;91.11;101515.72;5005673;28;20055;-77
2022/09/25 05:26:33;;;;;;;2.75;1.42;;;;;;;10.27;90.64;101527.56;5005142;28;20032;-77
2022/09/25 05:28:59;;;;;;;3.53;1.58;;;;;;;10.25;89.83;101535.50;5012154;28;20029;-76
2022/09/25 05:31:24;;;;;;;3.15;1.77;;;;;;;10.29;90.14;101528.06;5010045;28;22441;-76
2022/09/25 05:33:50;;;;;;;3.63;1.52;;;;;;;10.26;89.46;101528.72;5013962;28;20034;-74
2022/09/25 05:36:24;;;;;;;2.47;2.28;;;;;;;10.21;89.62;101526.22;5018801;28;20520;-75
2022/09/25 05:38:50;;;;;;;3.63;1.88;;;;;;;10.23;90.00;101526.66;5015081;28;20033;-76
2022/09/25 05:41:15;;;;;;;3.13;1.65;;;;;;;10.24;90.97;101536.66;5019204;28;20031;-76
2022/09/25 05:43:43;;;;;;;3.08;1.75;;;;;;;10.28;90.88;101537.56;5018715;28;20055;-75
2022/09/25 05:46:10;;;;;;;6.60;1.95;;;;;;;10.28;89.73;101537.56;5012832;28;20516;-74
2022/09/25 05:48:36;;;;;;;5.85;1.83;;;;;;;10.36;89.96;101533.81;5016803;28;20566;-76
2022/09/25 05:51:01;;;;;;;3.75;2.15;;;;;;;10.39;89.49;101537.88;5016231;28;20033;-75
2022/09/25 05:53:27;;;;;;;4.78;1.55;;;;;;;10.37;89.92;101526.22;5016751;28;20041;-73
2022/09/25 05:55:57;;;;;;;3.85;1.90;;;;;;;10.41;89.98;101531.94;5015524;28;20052;-76
2022/09/25 05:58:22;;;;;;;5.00;1.90;;;;;;;10.38;90.31;101541.88;5014382;28;20154;-75
2022/09/25 06:00:49;;;;;;;6.60;2.03;;;;;;;10.46;90.11;101538.06;5010071;28;20656;-76
2022/09/25 06:03:15;;;;;;;3.72;2.22;;;;;;;10.49;89.31;101539.34;5018407;28;20235;-75
2022/09/25 06:05:41;;;;;;;4.72;1.92;;;;;;;10.53;89.63;101537.44;5016208;28;20030;-75
2022/09/25 06:08:07;;;;;;;3.65;1.80;;;;;;;10.52;91.17;101536.63;5011567;28;20524;-75
2022/09/25 06:10:33;;;;;;;7.85;2.33;;;;;;;10.52;91.73;101535.81;5008766;28;20029;-75
2022/09/25 06:13:00;;;;;;;2.85;2.28;;;;;;;10.52;93.19;101538.59;5014448;28;20028;-75
2022/09/25 06:15:36;;;;;;;5.32;2.42;;;;;;;10.50;94.02;101539.00;5013339;28;20068;-75
2022/09/25 06:18:03;;;;;;;3.85;2.13;;;;;;;10.58;91.17;101548.34;5016446;28;20060;-75
2022/09/25 06:20:31;;;;;;;4.18;2.20;;;;;;;10.51;92.33;101534.19;5018235;28;20030;-75
2022/09/25 06:22:58;;;;;;;4.65;2.20;;;;;;;10.61;91.54;101544.84;5010440;28;20083;-75
2022/09/25 06:25:26;;;;;;;2.88;1.67;;;;;;;10.61;90.08;101544.84;5025460;28;20044;-75
2022/09/25 06:27:53;;;;;;;4.80;2.10;;;;;;;10.57;91.20;101555.94;5017179;28;20033;-75
2022/09/25 06:30:19;;;;;;;4.78;2.33;;;;;;;10.50;94.71;101561.38;5022998;28;20039;-75
2022/09/25 06:32:45;;;;;;;2.90;2.22;;;;;;;10.41;96.61;101554.31;5027760;28;20033;-75
2022/09/25 06:35:10;;;;;;;5.53;2.47;;;;;;;10.42;94.64;101553.16;5025866;28;20120;-76
2022/09/25 06:37:36;;;;;;;3.78;2.10;;;;;;;10.47;93.89;101558.47;5022626;28;20025;-75
2022/09/25 06:40:04;;;;;;;6.13;1.80;;;;;;;10.56;93.91;101564.69;5025871;28;20044;-75
2022/09/25 06:42:32;;;;;;;4.35;1.75;;;;;;;10.58;93.50;101556.75;5022109;28;20029;-76
2022/09/25 06:44:58;;;;;;;5.90;2.38;;;;;;;10.45;100.00;101560.81;5026349;28;20671;-76
2022/09/25 06:47:23;;;;;;;4.20;1.77;;;;;;;10.50;98.67;101549.38;5023720;28;20120;-76
2022/09/25 06:49:48;;;;;;;5.60;1.55;;;;;;;10.56;96.13;101545.09;5032855;28;20108;-76
2022/09/25 06:52:14;;;;;;;5.53;2.15;;;;;;;10.61;97.74;101539.25;5023933;28;20037;-76
2022/09/25 06:54:39;;;;;;;4.78;1.77;;;;;;;10.64;100.00;101541.31;5021865;28;20033;-76
2022/09/25 06:57:05;;;;;;;6.07;1.70;;;;;;;10.64;97.16;101541.31;5024899;28;20054;-75
2022/09/25 06:59:30;;;;;;;4.47;2.20;;;;;;;10.73;100.00;101541.94;5026180;28;20026;-75
2022/09/25 07:03:43;;;;;;;2.78;1.63;;;;;;;10.73;100.00;101541.94;5023818;28;20021;-75
2022/09/25 07:04:40;;;;;;;4.03;1.30;;;;;;;10.81;100.00;101544.91;5024678;28;20049;-76
2022/09/25 07:07:07;;;;;;;2.90;1.55;;;;;;;10.91;100.00;101544.34;5021646;28;20029;-75
2022/09/25 07:09:32;;;;;;;2.80;1.42;;;;;;;10.95;100.00;101542.47;5027057;28;20104;-75
2022/09/25 07:11:57;;;;;;;5.10;1.30;;;;;;;11.00;100.00;101550.56;5026705;28;20565;-75
2022/09/25 07:14:24;;;;;;;3.63;1.40;;;;;;;11.10;100.00;101555.63;5025392;28;20103;-76
2022/09/25 07:16:49;;;;;;;9.25;2.00;;;;;;;11.21;100.00;101552.25;5022801;28;20064;-75
2022/09/25 07:19:14;;;;;;;4.43;1.60;;;;;;;11.32;100.00;101559.72;5020439;28;20069;-76
2022/09/25 07:21:40;;;;;;;5.72;1.60;;;;;;;11.35;100.00;101544.16;5018721;28;20053;-75
2022/09/25 07:24:07;;;;;;;4.35;1.65;;;;;;;11.46;100.00;101548.00;5019164;28;20041;-75
2022/09/25 07:26:33;;;;;;;3.80;1.15;;;;;;;11.55;99.20;101553.38;5025094;28;20453;-75
2022/09/25 07:29:05;;;;;;;3.67;1.35;;;;;;;11.63;98.80;101548.75;5024907;28;20104;-75
2022/09/25 07:31:32;;;;;;;5.68;1.40;;;;;;;11.67;96.13;101550.44;5017707;28;20073;-75
2022/09/25 07:34:01;;;;;;;2.20;1.33;;;;;;;11.72;94.50;101552.13;5024132;28;20021;-75
2022/09/25 07:36:27;;;;;;;3.35;1.30;;;;;;;11.89;96.79;101548.09;5022585;28;20033;-75
2022/09/25 07:39:01;;;;;;;3.83;1.20;;;;;;;11.88;97.22;101554.88;5022717;28;20064;-75
2022/09/25 07:41:27;;;;;;;2.65;1.38;;;;;;;11.82;98.81;101545.94;5030628;28;20559;-75
2022/09/25 07:43:55;;;;;;;3.42;1.05;;;;;;;11.81;98.10;101544.31;5027016;28;20034;-74
2022/09/25 07:46:21;;;;;;;2.13;1.20;;;;;;;11.83;96.26;101536.34;5026152;28;20428;-74
2022/09/25 07:48:49;;;;;;;1.77;0.85;;;;;;;11.76;96.08;101542.63;5031851;28;20033;-75
2022/09/25 07:51:16;;;;;;;3.03;1.30;;;;;;;11.83;96.34;101552.34;5022924;28;20048;-75
2022/09/25 07:53:42;;;;;;;4.55;1.10;;;;;;;11.91;93.71;101552.16;5028123;28;20037;-74
2022/09/25 07:56:09;;;;;;;2.75;1.15;;;;;;;11.94;91.67;101553.41;5025687;28;20044;-77
2022/09/25 07:58:35;;;;;;;3.03;1.10;;;;;;;11.99;94.23;101548.31;5023798;28;20493;-76
2022/09/25 08:01:03;;;;;;;3.95;1.08;;;;;;;12.07;93.33;101551.25;5026311;28;20030;-77
2022/09/25 08:03:28;;;;;;;2.20;1.00;;;;;;;12.03;91.41;101547.56;5028735;28;20032;-77
2022/09/25 08:06:04;;;;;;;4.75;1.48;;;;;;;12.06;89.67;101549.63;5025112;28;20033;-76
2022/09/25 08:08:32;;;;;;;4.43;1.45;;;;;;;12.12;91.79;101562.16;5017123;28;20057;-76
2022/09/25 08:11:02;;;;;;;3.42;1.83;;;;;;;12.13;93.36;101549.78;5043750;28;20037;-76
2022/09/25 08:13:28;;;;;;;2.83;1.60;;;;;;;12.12;94.23;101560.19;5028401;28;20063;-75
2022/09/25 08:15:55;;;;;;;4.88;1.25;;;;;;;12.06;94.21;101560.84;5022667;28;20037;-76
2022/09/25 08:18:20;;;;;;;4.55;1.15;;;;;;;12.04;92.79;101557.59;5015899;28;20034;-76
2022/09/25 08:20:45;;;;;;;7.75;1.23;;;;;;;12.05;92.54;101559.22;5025948;28;20249;-76
2022/09/25 08:23:11;;;;;;;3.75;1.15;;;;;;;12.09;94.08;101566.53;5025881;28;20064;-76
2022/09/25 08:25:36;;;;;;;3.70;1.50;;;;;;;12.14;95.20;101552.22;5022424;28;20135;-76
2022/09/25 08:28:01;;;;;;;1.52;1.10;;;;;;;12.11;92.42;101563.38;5027950;28;20025;-76
2022/09/25 08:30:28;;;;;;;5.05;2.20;;;;;;;12.17;94.29;101559.88;5029912;28;20033;-75
2022/09/25 08:32:53;;;;;;;3.90;1.50;;;;;;;12.17;94.08;101567.50;5031297;28;20041;-76
2022/09/25 08:35:19;;;;;;;6.45;1.55;;;;;;;12.34;94.69;101554.97;5021447;28;20030;-75
2022/09/25 08:37:45;;;;;;;2.85;1.40;;;;;;;12.27;93.61;101561.25;5019407;28;20040;-76
2022/09/25 08:40:19;;;;;;;3.70;1.20;;;;;;;12.23;90.65;101565.16;5026523;28;20060;-76
2022/09/25 08:42:47;;;;;;;7.10;2.08;;;;;;;12.31;93.40;101561.31;5028795;28;20516;-76
2022/09/25 08:51:06;;;;;;;3.80;1.52;;;;;;;12.53;90.30;101565.31;5024788;28;20436;-76
2022/09/25 08:53:32;;;;;;;3.53;1.25;;;;;;;12.57;91.88;101563.41;5027309;28;20103;-76
2022/09/25 08:56:13;;;;;;;5.43;1.67;;;;;;;12.78;90.38;101563.75;5027502;28;20037;-76
2022/09/25 08:58:42;;;;;;;6.07;2.67;;;;;;;12.77;87.23;101562.09;5021172;28;20548;-77
2022/09/25 09:01:15;;;;;;;9.70;1.65;;;;;;;12.93;87.91;101569.59;5026487;28;20183;-76
2022/09/25 09:03:51;;;;;;;4.38;1.13;;;;;;;12.76;85.78;101574.53;5024215;28;20225;-76
2022/09/25 09:06:17;;;;;;;8.00;1.25;;;;;;;13.00;86.70;101566.88;5027550;28;20021;-76
2022/09/25 09:08:49;;;;;;;9.30;1.40;;;;;;;12.93;86.98;101566.78;5025598;28;20041;-77
2022/09/25 09:11:21;;;;;;;4.68;0.98;;;;;;;13.01;84.43;101565.72;5033454;28;20033;-76
2022/09/25 09:14:03;;;;;;;4.30;1.83;;;;;;;12.93;84.39;101561.16;5023415;28;20477;-76
2022/09/25 09:16:40;;;;;;;4.18;1.23;;;;;;;13.25;82.29;101552.41;5029007;28;20519;-77
2022/09/25 09:19:06;;;;;;;4.00;1.00;;;;;;;13.20;82.79;101559.97;5022814;28;20120;-76
2022/09/25 09:21:36;;;;;;;4.05;1.33;;;;;;;13.18;83.08;101556.72;5026673;28;20112;-76
2022/09/25 09:24:06;;;;;;;4.32;0.88;;;;;;;13.11;83.76;101559.44;5029924;28;20632;-76
2022/09/25 09:26:42;;;;;;;4.43;1.00;;;;;;;13.24;82.51;101545.97;5016544;28;20030;-76
2022/09/25 09:29:28;;;;;;;6.55;1.88;;;;;;;13.03;85.34;101546.47;5022043;28;20037;-76
2022/09/25 09:32:06;;;;;;;4.43;1.00;;;;;;;13.27;83.21;101555.66;5023198;28;20041;-77
2022/09/25 09:34:48;;;;;;;4.50;1.00;;;;;;;13.37;80.92;101555.81;5027902;28;20038;-77
2022/09/25 09:41:00;;;;;;;3.72;1.08;;;;;;;13.43;82.58;101542.25;5024227;28;20113;-76
2022/09/25 09:43:54;;;;;;;3.45;1.27;;;;;;;13.46;77.77;101554.72;5012275;28;20099;-77
2022/09/25 09:46:52;;;;;;;8.35;1.20;;;;;;;13.38;78.22;101546.19;5024182;28;20362;-75
2022/09/25 09:49:28;;;;;;;4.30;1.20;;;;;;;13.50;76.91;101553.56;5025298;28;20030;-77
2022/09/25 09:52:03;;;;;;;4.72;1.35;;;;;;;13.84;77.43;101550.78;5016999;28;20031;-76
2022/09/25 09:54:53;;;;;;;5.53;1.67;;;;;;;13.87;76.17;101544.41;5021962;28;20432;-77
2022/09/25 09:57:26;;;;;;;7.20;1.27;;;;;;;13.98;76.15;101542.50;5018229;28;20042;-77
2022/09/25 10:00:00;;;;;;;4.82;1.23;;;;;;;14.37;75.78;101539.25;5020544;28;20037;-76
2022/09/25 10:02:52;;;;;;;3.92;1.30;;;;;;;14.39;73.41;101542.50;5024110;28;20029;-76
2022/09/25 10:05:46;;;;;;;5.35;1.17;;;;;;;14.09;77.24;101539.81;5025794;28;20048;-76
2022/09/25 10:08:12;;;;;;;3.45;1.05;;;;;;;14.22;73.66;101534.69;5024282;28;20036;-76
2022/09/25 10:10:44;;;;;;;9.82;1.50;;;;;;;13.80;75.65;101536.66;5023572;28;20041;-77
2022/09/25 10:13:35;;;;;;;5.97;1.88;;;;;;;13.75;76.92;101533.41;5024233;28;20112;-76
2022/09/25 10:16:05;;;;;;;6.80;1.25;;;;;;;13.73;75.55;101532.97;5023119;28;20029;-76
2022/09/25 10:19:06;;;;;;;2.47;1.00;;;;;;;13.85;76.83;101527.09;5026952;28;20040;-77
2022/09/25 10:21:40;;;;;;;1.95;1.05;;;;;;;14.01;75.85;101527.66;5023435;28;20122;-76
2022/09/25 10:24:06;;;;;;;5.25;1.98;;;;;;;14.42;75.02;101512.78;5025131;28;20044;-76
2022/09/25 10:26:36;;;;;;;6.47;1.08;;;;;;;14.29;75.51;101520.69;5026862;28;20211;-76
2022/09/25 10:29:20;;;;;;;4.15;1.83;;;;;;;14.12;75.31;101526.94;5023130;28;20137;-77
2022/09/25 10:31:45;;;;;;;4.93;1.38;;;;;;;14.22;72.50;101521.41;5036866;28;20261;-77
2022/09/25 10:34:52;;;;;;;5.53;1.65;;;;;;;14.02;74.84;101525.66;5027299;28;20440;-76
2022/09/25 10:37:21;;;;;;;4.10;0.88;;;;;;;14.29;70.99;101515.03;5020263;28;20037;-77
2022/09/25 10:40:02;;;;;;;3.47;1.23;;;;;;;14.48;69.49;101516.81;5027885;28;20034;-76
2022/09/25 10:42:39;;;;;;;7.55;1.58;;;;;;;14.73;71.06;101511.41;5016638;28;20559;-76
2022/09/25 10:45:35;;;;;;;3.42;1.05;;;;;;;14.57;72.06;101511.72;5025119;28;20033;-76
2022/09/25 10:51:08;;;;;;;6.00;1.38;;;;;;;14.43;73.20;101512.38;5022817;28;20088;-76
2022/09/25 10:53:34;;;;;;;2.20;1.08;;;;;;;14.80;68.75;101511.50;5022957;28;20130;-76
2022/09/25 10:56:11;;;;;;;3.25;1.00;;;;;;;14.98;70.68;101505.16;5029816;28;20512;-76
2022/09/25 10:58:46;;;;;;;4.43;1.52;;;;;;;15.09;69.29;101517.28;5012262;28;20334;-76
2022/09/25 11:01:15;;;;;;;1.90;0.82;;;;;;;14.62;73.50;101516.19;5023682;28;20029;-76
2022/09/25 11:03:55;;;;;;;3.28;0.88;;;;;;;14.59;72.76;101511.34;5021943;28;20030;-76
2022/09/25 11:06:31;;;;;;;4.85;0.82;;;;;;;14.51;73.05;101509.63;5022946;28;20053;-76
2022/09/25 11:09:07;;;;;;;4.53;1.02;;;;;;;14.67;73.93;101515.00;5018685;28;20497;-75
2022/09/25 11:11:34;;;;;;;3.25;0.88;;;;;;;14.92;72.57;101503.91;5022350;28;20104;-75
2022/09/25 11:14:04;;;;;;;6.15;1.00;;;;;;;14.49;74.93;101504.38;5027153;28;20034;-76
2022/09/25 11:16:49;;;;;;;4.93;0.95;;;;;;;14.13;74.57;101511.69;5030862;28;20505;-76
2022/09/25 11:19:23;;;;;;;6.32;0.80;;;;;;;14.14;73.44;101511.28;5031349;28;20057;-75
2022/09/25 11:22:07;;;;;;;1.25;0.88;;;;;;;14.41;75.93;101500.69;5027361;28;20091;-76
2022/09/25 11:25:05;;;;;;;1.33;0.70;;;;;;;14.78;73.28;101516.72;5029640;28;20029;-76
2022/09/25 11:27:42;;;;;;;1.42;0.63;;;;;;;15.09;72.40;101508.84;5026929;28;20520;-75
2022/09/25 11:30:31;;;;;;;2.20;0.88;;;;;;;14.80;70.83;101500.22;5025494;28;20037;-75
2022/09/25 11:33:26;;;;;;;1.25;0.80;;;;;;;14.74;70.13;101496.16;5022475;28;20029;-75
2022/09/25 11:35:58;;;;;;;2.08;0.73;;;;;;;14.79;73.15;101503.41;5029198;28;20449;-76
2022/09/25 11:41:45;;;;;;;2.42;0.50;;;;;;;14.81;74.92;101496.19;5030152;28;20044;-75
2022/09/25 11:44:31;;;;;;;4.18;0.68;;;;;;;14.65;72.43;101492.84;5027601;28;20039;-76
2022/09/25 11:47:17;;;;;;;1.67;0.80;;;;;;;14.73;75.52;101488.88;5028991;28;20052;-75
2022/09/25 11:49:47;;;;;;;2.00;0.70;;;;;;;14.76;71.73;101493.75;5028587;28;20118;-75
2022/09/25 11:52:24;;;;;;;1.55;0.80;;;;;;;14.81;74.25;101495.38;5028073;28;20045;-76
2022/09/25 11:55:10;;;;;;;4.82;0.88;;;;;;;14.96;70.39;101494.25;5045550;28;20033;-75
2022/09/25 11:58:01;;;;;;;2.42;0.85;;;;;;;14.89;70.18;101493.44;5028370;28;20059;-75
2022/09/25 12:00:39;;;;;;;2.95;0.93;;;;;;;15.12;67.23;101485.50;5029602;28;20039;-75
2022/09/25 12:03:23;;;;;;;2.78;1.10;;;;;;;15.13;67.56;101484.28;5021680;28;20057;-76